Time;durP1;ratioP1;P1;durP2;ratioP2;P2;SDS_P1;SDS_P2;PMS_P1;PMS_P2;Temp;Humidity;BMP_temperature;BMP_pressure;BME280_temperature;BME280_humidity;BME280_pressure;Samples;Min_cycle;Max_cycle;Signal;HPM_P1;HPM_P2
2022/05/28 00:01:06;;;;;;;4.47;2.83;;;;;;;9.23;79.57;94288.22;5090792;28;20063;-48
2022/05/28 00:03:33;;;;;;;5.47;3.17;;;;;;;9.26;79.59;94284.72;5090553;28;20054;-50
2022/05/28 00:06:00;;;;;;;6.53;3.20;;;;;;;9.24;79.97;94290.56;5089949;28;21548;-51
2022/05/28 00:08:28;;;;;;;20.45;7.97;;;;;;;8.75;80.47;94278.59;5090767;28;20052;-48
2022/05/28 00:10:57;;;;;;;26.50;11.45;;;;;;;8.73;80.39;94281.75;5090072;28;20058;-54
2022/05/28 00:13:24;;;;;;;35.17;14.20;;;;;;;8.78;80.25;94275.84;5090800;28;20052;-54
2022/05/28 00:15:51;;;;;;;25.27;9.43;;;;;;;8.81;79.50;94268.81;5089862;28;20538;-47
2022/05/28 00:18:19;;;;;;;15.70;6.88;;;;;;;8.80;79.77;94268.03;5090759;28;20044;-52
2022/05/28 00:20:46;;;;;;;12.65;5.75;;;;;;;8.86;79.86;94268.41;5089649;28;20100;-50
2022/05/28 00:23:13;;;;;;;9.27;4.20;;;;;;;8.88;79.34;94268.81;5089241;28;20052;-51
2022/05/28 00:25:40;;;;;;;6.82;3.80;;;;;;;8.82;80.20;94261.41;5069857;28;20040;-52
2022/05/28 00:28:07;;;;;;;6.73;3.87;;;;;;;8.80;80.47;94267.25;5070260;28;20219;-54
2022/05/28 00:30:34;;;;;;;8.20;4.10;;;;;;;8.84;80.46;94270.75;5069151;28;20041;-49
2022/05/28 00:33:01;;;;;;;11.38;5.50;;;;;;;8.69;80.28;94261.81;5069230;28;20663;-49
2022/05/28 00:35:27;;;;;;;8.82;4.25;;;;;;;8.74;80.48;94260.63;5070137;28;20040;-49
2022/05/28 00:37:54;;;;;;;7.20;3.70;;;;;;;8.75;79.50;94262.97;5069406;28;20044;-50
2022/05/28 00:40:24;;;;;;;5.90;3.43;;;;;;;8.76;79.32;94270.00;5070171;28;20040;-54
2022/05/28 00:42:51;;;;;;;6.43;3.10;;;;;;;8.75;80.34;94259.44;5069311;28;20049;-53
2022/05/28 00:45:18;;;;;;;7.93;4.47;;;;;;;8.75;79.71;94248.50;5070180;28;20044;-55
2022/05/28 00:47:51;;;;;;;11.60;6.97;;;;;;;8.70;79.34;94249.69;5069632;28;20047;-51
2022/05/28 00:50:19;;;;;;;6.70;3.72;;;;;;;8.70;79.71;94251.66;5070103;28;20041;-51
2022/05/28 00:52:46;;;;;;;8.03;4.20;;;;;;;8.63;79.39;94257.91;5071285;28;20032;-50
2022/05/28 00:55:15;;;;;;;6.88;3.42;;;;;;;8.66;79.61;94259.09;5069369;28;20040;-55
2022/05/28 00:57:43;;;;;;;6.53;3.30;;;;;;;8.65;79.67;94246.56;5069293;28;20048;-51
2022/05/28 01:00:21;;;;;;;5.93;3.22;;;;;;;8.59;79.71;94248.94;5068343;28;20055;-51
2022/05/28 01:02:54;;;;;;;5.97;3.42;;;;;;;8.57;79.55;94246.59;5069236;28;20044;-52
2022/05/28 01:05:26;;;;;;;8.57;4.60;;;;;;;8.46;79.05;94243.09;5069888;28;20050;-51
2022/05/28 01:07:53;;;;;;;7.55;3.72;;;;;;;8.43;79.82;94249.38;5069236;28;20474;-56
2022/05/28 01:10:28;;;;;;;5.97;3.35;;;;;;;8.39;78.92;94249.34;5069964;28;20048;-55
2022/05/28 01:13:06;;;;;;;6.57;3.40;;;;;;;8.40;79.36;94239.94;5069107;28;20064;-49
2022/05/28 01:15:38;;;;;;;88.18;44.22;;;;;;;8.39;80.32;94243.06;5071292;28;20041;-47
2022/05/28 01:18:18;;;;;;;20.33;11.27;;;;;;;8.40;79.85;94239.19;5084515;28;20820;-49
2022/05/28 01:20:50;;;;;;;8.32;4.53;;;;;;;8.37;79.81;94223.53;5093435;28;20087;-54
2022/05/28 01:23:43;;;;;;;7.72;4.05;;;;;;;8.31;79.81;94228.66;5092149;28;20044;-49
2022/05/28 01:26:22;;;;;;;7.10;3.65;;;;;;;8.31;80.25;94230.59;5072595;28;20523;-51
2022/05/28 01:28:55;;;;;;;6.45;3.25;;;;;;;8.25;79.94;94226.69;5073259;28;20447;-51
2022/05/28 01:31:25;;;;;;;6.07;3.50;;;;;;;7.94;79.68;94232.56;5073538;28;20504;-53
2022/05/28 01:33:54;;;;;;;7.78;3.30;;;;;;;7.73;80.12;94222.44;5072938;28;20048;-59
2022/05/28 01:36:21;;;;;;;5.97;3.50;;;;;;;7.65;80.39;94231.81;5073628;28;20455;-51
2022/05/28 01:38:50;;;;;;;6.55;3.30;;;;;;;7.70;80.30;94225.16;5073014;28;20044;-50
2022/05/28 01:41:17;;;;;;;5.88;3.30;;;;;;;7.79;79.94;94220.09;5073613;28;20051;-50
2022/05/28 01:43:47;;;;;;;6.03;3.47;;;;;;;7.84;80.35;94218.94;5072663;28;20683;-52
2022/05/28 01:46:17;;;;;;;5.78;3.70;;;;;;;7.83;80.64;94204.50;5072833;28;20390;-48
2022/05/28 01:48:46;;;;;;;6.00;3.50;;;;;;;7.84;80.86;94208.78;5072664;28;20070;-49
2022/05/28 01:51:15;;;;;;;5.78;3.20;;;;;;;7.72;81.78;94211.88;5073118;28;20051;-50
2022/05/28 01:56:30;;;;;;;7.30;3.80;;;;;;;7.80;82.89;94197.06;5093295;28;20048;-49
2022/05/28 01:58:57;;;;;;;6.82;4.00;;;;;;;7.83;83.65;94209.97;5093017;28;20040;-53
2022/05/28 02:01:24;;;;;;;6.80;3.90;;;;;;;7.90;83.59;94209.94;5093308;28;20051;-55
2022/05/28 02:03:54;;;;;;;6.72;3.95;;;;;;;7.87;83.76;94194.34;5092726;28;20052;-51
2022/05/28 02:06:21;;;;;;;6.07;3.70;;;;;;;8.03;83.72;94188.47;5093294;28;20488;-54
2022/05/28 02:08:49;;;;;;;7.67;4.23;;;;;;;8.11;83.91;94186.47;5091384;28;20157;-51
2022/05/28 02:11:17;;;;;;;10.25;4.35;;;;;;;8.22;84.31;94195.47;5093130;28;20408;-51
2022/05/28 02:13:52;;;;;;;7.30;4.30;;;;;;;8.30;84.98;94188.03;5092502;28;20044;-53
2022/05/28 02:16:57;;;;;;;7.53;4.25;;;;;;;8.43;85.58;94186.47;5093075;28;20491;-48
2022/05/28 02:19:39;;;;;;;7.63;4.60;;;;;;;8.59;85.48;94175.06;5033405;28;21664;-47
2022/05/28 02:22:43;;;;;;;8.77;4.67;;;;;;;8.72;85.72;94165.25;5075501;28;20145;-49
2022/05/28 02:25:19;;;;;;;9.35;4.90;;;;;;;8.76;85.49;94168.75;5074049;28;20063;-50
2022/05/28 02:27:47;;;;;;;7.85;4.20;;;;;;;8.76;83.32;94165.25;5072118;28;20043;-48
2022/05/28 02:30:14;;;;;;;7.50;4.22;;;;;;;8.50;82.15;94163.78;5072343;28;20046;-48
2022/05/28 02:32:41;;;;;;;6.57;3.90;;;;;;;8.43;83.00;94166.53;5071856;28;20049;-48
2022/05/28 02:35:10;;;;;;;8.03;3.83;;;;;;;8.16;82.14;94166.97;5087544;28;20049;-48
2022/05/28 02:37:37;;;;;;;6.00;3.80;;;;;;;8.23;82.71;94168.91;5071852;28;20463;-51
2022/05/28 02:40:05;;;;;;;7.60;4.40;;;;;;;8.44;84.38;94166.13;5070639;28;20044;-52
2022/05/28 02:42:32;;;;;;;6.38;3.63;;;;;;;8.40;83.13;94154.41;5072476;28;20048;-49
2022/05/28 02:44:59;;;;;;;9.38;4.85;;;;;;;8.65;86.08;94157.06;5071494;28;20037;-50
2022/05/28 02:47:26;;;;;;;7.73;4.20;;;;;;;8.77;84.56;94153.09;5072437;28;20405;-47
2022/05/28 02:49:54;;;;;;;8.10;4.50;;;;;;;8.71;83.71;94150.03;5071655;28;20057;-47
2022/05/28 02:52:20;;;;;;;10.57;5.93;;;;;;;8.57;83.77;94150.06;5070611;28;20059;-51
2022/05/28 02:54:47;;;;;;;12.10;6.15;;;;;;;8.60;83.89;94144.59;5083126;28;20404;-48
2022/05/28 02:57:14;;;;;;;9.45;4.80;;;;;;;8.62;83.67;94148.91;5091882;28;20040;-56
2022/05/28 02:59:40;;;;;;;8.10;4.50;;;;;;;8.62;84.24;94141.47;5090696;28;20036;-51
2022/05/28 03:02:07;;;;;;;6.72;4.00;;;;;;;8.55;83.07;94142.28;5091880;28;20058;-47
2022/05/28 03:04:34;;;;;;;7.25;3.90;;;;;;;8.37;82.71;94150.50;5092000;28;20051;-50
2022/05/28 03:07:01;;;;;;;10.27;4.32;;;;;;;8.32;83.50;94141.94;5090945;28;20732;-54
2022/05/28 03:09:27;;;;;;;7.32;4.05;;;;;;;8.44;84.43;94152.47;5090780;28;20127;-52
2022/05/28 03:11:54;;;;;;;9.03;4.30;;;;;;;8.33;83.29;94151.69;5091626;28;20040;-50
2022/05/28 03:14:21;;;;;;;12.05;5.70;;;;;;;8.75;88.47;94147.25;5091737;28;20074;-54
2022/05/28 03:16:47;;;;;;;8.55;4.57;;;;;;;8.69;84.17;94151.59;5091437;28;20044;-47
2022/05/28 03:19:14;;;;;;;6.80;4.20;;;;;;;8.58;83.59;94151.63;5091539;28;20516;-50
2022/05/28 03:21:41;;;;;;;9.73;5.60;;;;;;;8.68;86.62;94155.50;5090919;28;20062;-47
2022/05/28 03:24:08;;;;;;;9.70;5.10;;;;;;;8.88;85.57;94153.84;5082389;28;20054;-54
2022/05/28 03:26:35;;;;;;;10.05;6.30;;;;;;;9.18;85.91;94145.06;5071700;28;20408;-49
2022/05/28 03:29:04;;;;;;;10.57;6.03;;;;;;;9.40;85.44;94155.91;5070070;28;20943;-46
2022/05/28 03:31:31;;;;;;;11.80;6.35;;;;;;;9.52;84.91;94152.69;5071182;28;20040;-49
2022/05/28 03:33:59;;;;;;;9.23;6.00;;;;;;;9.72;84.67;94154.88;5069244;28;20044;-50
2022/05/28 03:36:27;;;;;;;10.77;5.93;;;;;;;9.85;83.56;94158.66;5071331;28;20053;-47
2022/05/28 03:38:54;;;;;;;9.98;6.15;;;;;;;9.86;82.72;94151.22;5070306;28;20048;-48
2022/05/28 03:41:21;;;;;;;12.68;6.20;;;;;;;9.79;82.52;94152.84;5070859;28;20048;-55
2022/05/28 03:43:48;;;;;;;10.75;5.82;;;;;;;9.73;82.11;94156.44;5070602;28;20048;-50
2022/05/28 03:46:27;;;;;;;10.20;5.80;;;;;;;9.71;81.69;94159.56;5070733;28;20094;-47
2022/05/28 03:48:59;;;;;;;11.50;6.03;;;;;;;9.77;81.27;94160.69;5070299;28;20052;-49
2022/05/28 03:51:26;;;;;;;10.07;5.85;;;;;;;9.69;81.57;94161.16;5069601;28;20040;-48
2022/05/28 03:53:53;;;;;;;10.90;5.72;;;;;;;9.74;79.79;94167.00;5074654;28;20417;-50
2022/05/28 03:56:22;;;;;;;12.20;5.78;;;;;;;9.77;81.18;94168.91;5090914;28;20114;-47
2022/05/28 03:58:50;;;;;;;9.52;5.75;;;;;;;9.89;80.98;94164.13;5090462;28;20423;-56
2022/05/28 04:01:18;;;;;;;9.80;5.97;;;;;;;9.91;80.47;94178.22;5090896;28;20423;-53
2022/05/28 04:03:44;;;;;;;11.15;6.18;;;;;;;9.87;81.00;94174.72;5090407;28;20058;-52
2022/05/28 04:06:12;;;;;;;10.65;6.22;;;;;;;9.75;80.90;94176.75;5090841;28;20122;-50
2022/05/28 04:08:40;;;;;;;13.32;6.18;;;;;;;9.40;82.16;94172.34;5090610;28;20046;-50
2022/05/28 04:11:07;;;;;;;11.63;6.57;;;;;;;9.28;82.21;94176.31;5090684;28;20485;-55
2022/05/28 04:13:34;;;;;;;10.40;6.10;;;;;;;9.49;80.79;94177.34;5090917;28;20048;-50
2022/05/28 04:16:01;;;;;;;12.18;6.25;;;;;;;9.56;80.30;94189.03;5089508;28;20702;-64
2022/05/28 04:18:28;;;;;;;11.32;5.95;;;;;;;9.48;80.90;94184.03;5090854;28;20411;-54
2022/05/28 04:20:54;;;;;;;10.68;6.10;;;;;;;9.60;79.70;94180.81;5089810;28;20051;-51
2022/05/28 04:23:21;;;;;;;11.48;5.97;;;;;;;9.49;79.43;94186.34;5087836;28;20108;-49
2022/05/28 04:25:48;;;;;;;13.13;5.67;;;;;;;9.19;79.00;94184.97;5052037;28;20072;-55
2022/05/28 04:28:15;;;;;;;11.70;6.15;;;;;;;9.30;79.55;94193.13;5069872;28;20044;-47
2022/05/28 04:30:42;;;;;;;13.40;6.88;;;;;;;9.45;79.04;94204.75;5069679;28;20056;-50
2022/05/28 04:33:09;;;;;;;10.65;6.10;;;;;;;9.39;78.98;94207.13;5070037;28;20459;-54
2022/05/28 04:35:35;;;;;;;11.68;6.00;;;;;;;9.08;79.65;94192.47;5068675;28;20421;-48
2022/05/28 04:38:02;;;;;;;16.00;6.37;;;;;;;9.14;79.99;94198.31;5070113;28;20382;-58
2022/05/28 04:40:29;;;;;;;12.45;5.82;;;;;;;9.28;79.25;94197.44;5070195;28;20054;-47
2022/05/28 04:42:56;;;;;;;12.48;6.05;;;;;;;9.21;79.54;94209.22;5069619;28;20048;-51
2022/05/28 04:45:23;;;;;;;11.48;6.10;;;;;;;8.97;80.03;94199.94;5069817;28;20048;-58
2022/05/28 04:47:49;;;;;;;12.90;6.93;;;;;;;8.84;80.92;94207.06;5069618;28;20040;-54
2022/05/28 04:50:16;;;;;;;13.00;6.57;;;;;;;9.04;80.15;94204.63;5068872;28;20539;-50
2022/05/28 04:52:43;;;;;;;12.93;6.05;;;;;;;9.18;79.61;94207.28;5070775;28;20413;-53
2022/05/28 04:55:11;;;;;;;12.85;6.45;;;;;;;9.02;80.46;94209.72;5090100;28;20442;-47
2022/05/28 04:57:38;;;;;;;11.40;5.70;;;;;;;9.48;78.63;94205.94;5089869;28;20449;-47
2022/05/28 05:00:10;;;;;;;10.55;5.80;;;;;;;9.49;78.73;94205.50;5089528;28;20043;-56
2022/05/28 05:02:36;;;;;;;10.13;6.20;;;;;;;9.51;77.80;94208.63;5069664;28;20048;-47
2022/05/28 05:05:04;;;;;;;13.80;5.95;;;;;;;9.44;77.93;94205.97;5070080;28;20054;-49
2022/05/28 05:07:31;;;;;;;13.85;6.72;;;;;;;9.24;78.08;94205.69;5070200;28;20044;-51
2022/05/28 05:09:57;;;;;;;13.55;6.50;;;;;;;9.10;79.74;94209.28;5069984;28;20054;-52
2022/05/28 05:12:24;;;;;;;15.25;7.07;;;;;;;9.08;79.29;94211.63;5070398;28;20044;-49
2022/05/28 05:14:51;;;;;;;14.70;6.57;;;;;;;9.01;79.25;94211.66;5069262;28;20044;-54
2022/05/28 05:17:17;;;;;;;15.45;6.82;;;;;;;9.23;78.87;94212.31;5069596;28;20047;-50
2022/05/28 05:19:44;;;;;;;13.98;6.75;;;;;;;9.13;78.69;94208.47;5068809;28;20043;-53
2022/05/28 05:22:11;;;;;;;11.43;6.78;;;;;;;9.28;78.28;94209.19;5069191;28;20106;-51
2022/05/28 05:24:38;;;;;;;12.63;6.78;;;;;;;9.89;75.93;94211.50;5069024;28;20044;-54
2022/05/28 05:27:05;;;;;;;12.63;6.60;;;;;;;11.93;68.94;94210.34;5069884;28;20052;-49
2022/05/28 05:29:31;;;;;;;10.15;5.93;;;;;;;13.36;63.10;94209.72;5069901;28;20057;-55
2022/05/28 05:31:58;;;;;;;11.95;6.00;;;;;;;14.14;59.98;94217.41;5069160;28;20047;-50
2022/05/28 05:34:25;;;;;;;12.18;6.30;;;;;;;14.04;60.23;94218.47;5069524;28;20044;-47
2022/05/28 05:36:52;;;;;;;12.38;6.22;;;;;;;13.01;63.18;94217.50;5069026;28;20413;-48
2022/05/28 05:39:19;;;;;;;10.43;5.57;;;;;;;14.31;61.18;94215.44;5069057;28;20055;-50
2022/05/28 05:41:46;;;;;;;12.30;5.82;;;;;;;14.15;59.94;94219.75;5069335;28;20036;-54
2022/05/28 05:44:12;;;;;;;10.95;6.18;;;;;;;14.87;57.76;94217.19;5069190;28;20041;-48
2022/05/28 05:46:41;;;;;;;13.32;6.20;;;;;;;15.64;55.70;94217.41;5069152;28;20501;-51
2022/05/28 05:49:09;;;;;;;11.13;6.07;;;;;;;15.70;55.59;94218.41;5069335;28;20444;-50
2022/05/28 05:51:43;;;;;;;11.90;6.03;;;;;;;15.69;55.26;94209.31;5068906;28;20049;-48
2022/05/28 05:54:10;;;;;;;8.68;5.10;;;;;;;20.09;44.62;94203.19;5080186;28;20109;-51
2022/05/28 05:56:37;;;;;;;9.23;5.35;;;;;;;18.08;47.22;94206.28;5089160;28;20044;-55
2022/05/28 05:59:04;;;;;;;9.98;5.55;;;;;;;18.21;48.10;94203.38;5088391;28;20476;-49
2022/05/28 06:01:31;;;;;;;9.73;5.40;;;;;;;17.74;47.83;94202.41;5090722;28;20048;-47
2022/05/28 06:03:58;;;;;;;9.60;5.63;;;;;;;16.36;51.87;94200.13;5092816;28;20092;-47
2022/05/28 06:06:26;;;;;;;12.55;7.00;;;;;;;16.80;51.31;94204.19;5092837;28;20069;-54
2022/05/28 06:08:52;;;;;;;16.38;8.93;;;;;;;16.73;51.03;94208.78;5092912;28;20040;-51
2022/05/28 06:11:19;;;;;;;31.15;19.23;;;;;;;15.54;53.49;94211.72;5091613;28;20086;-45
2022/05/28 06:13:46;;;;;;;11.70;6.38;;;;;;;16.58;51.16;94202.19;5092471;28;20048;-51
2022/05/28 06:16:13;;;;;;;10.83;5.87;;;;;;;16.24;51.75;94209.22;5092756;28;20389;-48
2022/05/28 06:18:41;;;;;;;8.05;5.50;;;;;;;16.13;52.00;94204.00;5092471;28;20050;-49
2022/05/28 06:21:08;;;;;;;9.35;5.55;;;;;;;16.57;51.08;94209.69;5092744;28;20434;-45
2022/05/28 06:23:35;;;;;;;11.73;5.60;;;;;;;16.14;51.51;94205.56;5092756;28;20386;-52
2022/05/28 06:26:05;;;;;;;10.55;5.35;;;;;;;16.94;49.55;94203.72;5083610;28;20275;-47
2022/05/28 06:28:32;;;;;;;12.00;4.77;;;;;;;17.89;44.14;94211.00;5092377;28;20040;-49
2022/05/28 06:31:05;;;;;;;10.38;4.70;;;;;;;21.63;36.57;94203.88;5092365;28;20044;-53
2022/05/28 06:33:33;;;;;;;11.70;4.68;;;;;;;20.01;39.17;94211.13;5092219;28;20042;-47
2022/05/28 06:36:02;;;;;;;10.70;4.10;;;;;;;22.18;36.04;94205.28;5092318;28;20039;-48
2022/05/28 06:38:29;;;;;;;8.82;4.20;;;;;;;22.38;34.40;94206.63;5075049;28;20049;-47
2022/05/28 06:40:56;;;;;;;9.67;4.30;;;;;;;22.41;34.64;94195.22;5072023;28;20460;-52
2022/05/28 06:43:23;;;;;;;7.38;3.85;;;;;;;23.82;31.14;94191.31;5072041;28;20049;-54
2022/05/28 06:45:51;;;;;;;11.27;4.05;;;;;;;24.16;31.27;94197.22;5071347;28;20056;-52
2022/05/28 06:48:17;;;;;;;7.50;3.88;;;;;;;24.57;30.55;94199.84;5072035;28;20052;-49
2022/05/28 06:51:03;;;;;;;7.72;4.32;;;;;;;20.57;37.26;94202.50;5071520;28;20045;-52
2022/05/28 06:53:47;;;;;;;10.33;4.50;;;;;;;20.61;37.88;94203.91;5062124;28;20048;-49
2022/05/28 06:56:16;;;;;;;7.45;3.75;;;;;;;23.68;32.59;94192.97;5070912;28;20072;-57
2022/05/28 06:58:44;;;;;;;8.82;3.90;;;;;;;23.81;31.38;94195.41;5071420;28;20041;-47
2022/05/28 07:01:11;;;;;;;7.95;3.88;;;;;;;23.91;30.91;94198.81;5071758;28;20123;-62
2022/05/28 07:03:40;;;;;;;10.00;4.30;;;;;;;21.80;33.95;94201.38;5071232;28;20424;-50
2022/05/28 07:06:06;;;;;;;9.80;4.03;;;;;;;20.64;36.64;94194.56;5071855;28;20538;-54
2022/05/28 07:08:33;;;;;;;7.15;4.10;;;;;;;19.01;38.93;94205.22;5071324;28;20076;-52
2022/05/28 07:11:01;;;;;;;9.73;4.00;;;;;;;19.88;37.60;94196.63;5070016;28;20032;-51
2022/05/28 07:13:29;;;;;;;9.90;4.25;;;;;;;22.32;33.21;94192.56;5070579;28;20059;-51
2022/05/28 07:15:56;;;;;;;7.30;3.70;;;;;;;24.30;30.58;94189.91;5070919;28;20055;-50
2022/05/28 07:18:23;;;;;;;8.47;3.53;;;;;;;26.85;27.40;94201.31;5071360;28;20051;-51
2022/05/28 07:20:50;;;;;;;10.20;3.60;;;;;;;27.09;26.25;94197.91;5070581;28;20045;-50
2022/05/28 07:23:21;;;;;;;7.63;3.35;;;;;;;27.66;25.17;94197.69;5071213;28;20116;-53
2022/05/28 07:25:49;;;;;;;6.32;3.40;;;;;;;28.21;24.67;94206.28;5080992;28;20130;-49
2022/05/28 07:28:24;;;;;;;7.45;3.45;;;;;;;28.11;24.08;94193.81;5091405;28;20051;-51
2022/05/28 07:30:58;;;;;;;4.87;3.07;;;;;;;26.58;25.91;94197.31;5091157;28;20056;-49
2022/05/28 07:33:26;;;;;;;8.70;3.38;;;;;;;25.52;27.05;94193.09;5091238;28;20481;-52
2022/05/28 07:35:55;;;;;;;7.43;3.42;;;;;;;25.67;27.44;94195.69;5089410;28;20470;-57
2022/05/28 07:38:24;;;;;;;7.50;3.30;;;;;;;27.12;25.38;94192.53;5091095;28;20052;-53
2022/05/28 07:40:51;;;;;;;8.18;3.70;;;;;;;28.48;23.70;94187.59;5090819;28;20054;-56
2022/05/28 07:43:18;;;;;;;7.50;3.70;;;;;;;24.71;27.16;94200.94;5091026;28;20051;-47
2022/05/28 07:45:46;;;;;;;6.95;3.53;;;;;;;24.60;28.56;94195.25;5090650;28;20040;-48
2022/05/28 07:48:15;;;;;;;7.03;3.30;;;;;;;24.90;27.14;94190.81;5091136;28;20040;-63
2022/05/28 07:50:43;;;;;;;7.75;3.10;;;;;;;27.56;24.22;94196.44;5090159;28;20430;-52
2022/05/28 07:53:10;;;;;;;7.07;3.35;;;;;;;26.62;25.13;94195.00;5084125;28;20036;-54
2022/05/28 07:55:37;;;;;;;5.80;3.37;;;;;;;25.37;25.98;94195.34;5070004;28;20059;-47
2022/05/28 07:58:08;;;;;;;6.75;2.80;;;;;;;27.18;24.14;94190.44;5070836;28;20044;-50
2022/05/28 08:00:53;;;;;;;8.60;3.20;;;;;;;27.31;24.52;94182.25;5070419;28;20055;-49
2022/05/28 08:03:20;;;;;;;9.55;3.05;;;;;;;27.55;24.05;94186.44;5069660;28;20429;-54
2022/05/28 08:05:49;;;;;;;7.60;3.20;;;;;;;25.61;25.35;94189.28;5070104;28;20044;-50
2022/05/28 08:08:18;;;;;;;6.70;3.07;;;;;;;25.95;24.55;94189.38;5070503;28;20401;-52
2022/05/28 08:10:44;;;;;;;7.32;2.92;;;;;;;25.29;25.74;94195.06;5068836;28;20409;-50
2022/05/28 08:13:19;;;;;;;8.02;3.22;;;;;;;26.21;24.78;94181.44;5070558;28;20044;-53
2022/05/28 08:15:48;;;;;;;7.55;2.88;;;;;;;27.84;23.24;94180.13;5085832;28;20052;-51
2022/05/28 08:18:18;;;;;;;9.07;3.00;;;;;;;25.79;24.31;94183.19;5070244;28;20057;-57
2022/05/28 08:23:31;;;;;;;8.13;2.90;;;;;;;24.57;25.83;94185.81;5073704;28;20036;-51
2022/05/28 08:25:57;;;;;;;6.75;2.83;;;;;;;24.65;26.29;94177.66;5081460;28;20039;-50
2022/05/28 08:28:24;;;;;;;6.45;2.72;;;;;;;25.10;26.03;94189.88;5090168;28;20048;-50
2022/05/28 08:30:52;;;;;;;6.45;2.65;;;;;;;25.98;23.76;94183.50;5083546;28;20040;-53
2022/05/28 08:33:20;;;;;;;5.57;2.40;;;;;;;27.17;22.48;94177.66;5070353;28;20044;-53
2022/05/28 08:35:50;;;;;;;5.75;2.60;;;;;;;25.40;23.83;94174.69;5069761;28;20055;-52
2022/05/28 08:38:20;;;;;;;7.75;2.83;;;;;;;21.19;28.87;94175.88;5069849;28;20401;-61
2022/05/28 08:40:57;;;;;;;6.43;2.67;;;;;;;22.47;28.07;94181.31;5069394;28;20040;-57
2022/05/28 08:43:29;;;;;;;6.05;2.72;;;;;;;25.08;24.30;94178.38;5069844;28;20071;-55
2022/05/28 08:45:56;;;;;;;8.97;3.20;;;;;;;21.74;28.63;94169.78;5069601;28;20058;-51
2022/05/28 08:48:46;;;;;;;5.78;2.70;;;;;;;21.45;29.23;94178.91;5069955;28;20045;-49
2022/05/28 08:51:38;;;;;;;6.45;2.83;;;;;;;21.78;29.40;94167.56;5069192;28;20053;-51
2022/05/28 08:54:19;;;;;;;6.07;2.72;;;;;;;22.03;28.58;94166.16;5068862;28;20113;-50
2022/05/28 08:56:49;;;;;;;6.28;2.58;;;;;;;24.40;26.83;94179.28;5069758;28;20054;-50
2022/05/28 08:59:21;;;;;;;6.60;2.70;;;;;;;22.84;27.85;94161.19;5069865;28;20071;-54
2022/05/28 09:01:54;;;;;;;6.57;2.95;;;;;;;19.98;30.80;94173.06;5069679;28;20048;-53
2022/05/28 09:04:32;;;;;;;5.72;2.50;;;;;;;23.90;27.45;94158.78;5069728;28;20054;-51
2022/05/28 09:07:05;;;;;;;6.13;2.72;;;;;;;22.76;28.09;94149.69;5069653;28;20047;-51
2022/05/28 09:09:43;;;;;;;5.93;2.60;;;;;;;25.22;24.68;94147.81;5069856;28;20044;-52
2022/05/28 09:12:32;;;;;;;5.37;2.17;;;;;;;26.37;23.13;94146.13;5068810;28;20052;-53
2022/05/28 09:14:59;;;;;;;6.22;2.33;;;;;;;23.58;26.14;94145.97;5069390;28;20044;-52
2022/05/28 09:17:39;;;;;;;5.00;2.30;;;;;;;22.99;26.97;94136.72;5069432;28;20103;-54
2022/05/28 09:20:15;;;;;;;4.50;2.10;;;;;;;25.02;25.70;94145.94;5068722;28;20424;-52
2022/05/28 09:22:42;;;;;;;4.88;2.28;;;;;;;23.25;26.62;94147.97;5068883;28;20052;-54
2022/05/28 09:25:10;;;;;;;5.17;2.20;;;;;;;26.40;22.79;94141.50;5078037;28;20079;-51
2022/05/28 09:27:39;;;;;;;7.00;2.25;;;;;;;27.06;21.68;94141.84;5089272;28;20036;-57
2022/05/28 09:30:19;;;;;;;6.82;2.17;;;;;;;27.60;20.73;94141.31;5089678;28;20050;-52
2022/05/28 09:32:49;;;;;;;4.45;1.80;;;;;;;26.92;21.71;94142.94;5089412;28;20036;-50
2022/05/28 09:35:36;;;;;;;5.93;2.30;;;;;;;24.96;23.36;94133.94;5089865;28;20050;-50
2022/05/28 09:38:41;;;;;;;4.73;2.00;;;;;;;25.25;23.40;94129.94;5092808;28;20859;-48
2022/05/28 09:41:24;;;;;;;5.78;2.35;;;;;;;21.66;28.62;94132.31;5092863;28;20106;-50
2022/05/28 09:44:19;;;;;;;6.32;2.40;;;;;;;22.23;27.52;94140.28;5093402;28;20047;-54
2022/05/28 09:46:46;;;;;;;5.53;2.20;;;;;;;24.95;23.74;94135.97;5092944;28;20048;-53
2022/05/28 09:49:19;;;;;;;5.85;2.20;;;;;;;23.67;25.00;94138.19;5093562;28;20052;-55
2022/05/28 09:52:06;;;;;;;6.30;2.17;;;;;;;24.02;25.10;94136.44;5092587;28;20404;-55
2022/05/28 09:54:34;;;;;;;4.93;2.00;;;;;;;23.45;25.94;94137.97;5084804;28;20409;-50
2022/05/28 09:57:31;;;;;;;5.07;1.98;;;;;;;23.99;24.57;94135.41;5092710;28;20066;-52
2022/05/28 10:00:03;;;;;;;4.25;1.98;;;;;;;23.99;25.15;94134.66;5079688;28;20085;-52
2022/05/28 10:04:28;;;;;;;4.38;2.00;;;;;;;25.84;22.28;94123.38;5093288;28;20044;-49
2022/05/28 10:05:41;;;;;;;6.93;2.00;;;;;;;23.50;25.00;94132.44;5092033;28;20834;-55
2022/05/28 10:08:13;;;;;;;5.47;2.00;;;;;;;22.58;26.21;94125.53;5092221;28;21614;-50
2022/05/28 10:10:40;;;;;;;5.30;1.98;;;;;;;22.82;25.04;94122.53;5092606;28;20046;-48
2022/05/28 10:13:12;;;;;;;5.35;1.98;;;;;;;24.40;23.60;94121.13;5093016;28;20060;-53
2022/05/28 10:16:04;;;;;;;4.72;2.00;;;;;;;22.52;25.68;94119.88;5092330;28;20058;-48
2022/05/28 10:18:38;;;;;;;4.03;1.87;;;;;;;23.62;24.48;94116.47;5092789;28;20447;-51
2022/05/28 10:21:10;;;;;;;3.92;2.00;;;;;;;24.64;23.04;94117.22;5091720;28;21788;-48
2022/05/28 10:23:44;;;;;;;4.97;1.90;;;;;;;20.95;27.74;94118.88;5087417;28;20040;-48
2022/05/28 10:26:31;;;;;;;4.32;2.00;;;;;;;20.98;27.01;94119.16;5072316;28;20049;-52
2022/05/28 10:29:04;;;;;;;4.18;1.80;;;;;;;21.67;26.61;94120.66;5072164;28;20046;-51
2022/05/28 10:31:36;;;;;;;4.37;1.60;;;;;;;21.33;26.62;94114.50;5072366;28;20048;-49
2022/05/28 10:34:04;;;;;;;4.65;1.65;;;;;;;23.74;23.52;94108.94;5071610;28;20040;-49
2022/05/28 10:36:34;;;;;;;5.85;2.25;;;;;;;20.76;26.37;94114.69;5072379;28;20052;-49
2022/05/28 10:39:17;;;;;;;3.25;1.45;;;;;;;23.50;23.70;94103.63;5071888;28;20090;-50
2022/05/28 10:41:46;;;;;;;5.05;1.70;;;;;;;22.91;23.84;94105.56;5071603;28;20401;-55
2022/05/28 10:44:14;;;;;;;4.17;1.50;;;;;;;21.72;24.02;94114.38;5072262;28;20070;-49
2022/05/28 10:47:00;;;;;;;3.58;1.38;;;;;;;23.45;22.64;94102.34;5071213;28;20060;-50
2022/05/28 10:49:32;;;;;;;4.03;1.38;;;;;;;20.02;25.29;94109.59;5071019;28;20048;-54
2022/05/28 10:52:21;;;;;;;5.18;1.60;;;;;;;20.33;25.72;94108.47;5071613;28;20497;-47
2022/05/28 10:54:53;;;;;;;4.03;1.48;;;;;;;19.96;25.72;94114.28;5053210;28;20054;-51
2022/05/28 10:57:42;;;;;;;3.20;1.50;;;;;;;20.59;24.95;94103.22;5051775;28;20063;-46
2022/05/28 11:00:21;;;;;;;7.18;2.00;;;;;;;19.80;27.29;94104.28;5057888;28;20847;-46
2022/05/28 11:03:16;;;;;;;3.90;1.30;;;;;;;18.02;28.72;94095.03;5051382;28;20041;-47
2022/05/28 11:05:48;;;;;;;4.10;1.30;;;;;;;19.67;27.27;94095.34;5050974;28;20053;-48
2022/05/28 11:08:35;;;;;;;4.80;2.10;;;;;;;19.50;26.56;94087.38;5051853;28;20040;-53
2022/05/28 11:11:39;;;;;;;3.77;1.30;;;;;;;20.64;25.69;94077.44;5059134;28;21705;-53
2022/05/28 11:14:21;;;;;;;4.38;1.10;;;;;;;20.50;25.60;94081.72;5050776;28;21717;-46
2022/05/28 11:16:58;;;;;;;3.28;1.13;;;;;;;20.72;25.10;94077.84;5050727;28;20060;-50
2022/05/28 11:19:47;;;;;;;3.03;0.93;;;;;;;20.98;24.25;94078.09;5051819;28;20043;-48
2022/05/28 11:22:23;;;;;;;3.13;0.90;;;;;;;21.13;22.63;94073.28;5049158;28;20898;-48
2022/05/28 11:24:53;;;;;;;3.50;0.90;;;;;;;20.31;23.08;94075.50;5065352;28;20050;-48
2022/05/28 11:27:35;;;;;;;4.38;0.95;;;;;;;21.03;22.86;94068.28;5071345;28;20040;-49
2022/05/28 11:30:22;;;;;;;3.17;0.90;;;;;;;21.04;22.06;94065.00;5070451;28;20616;-50
2022/05/28 11:33:08;;;;;;;4.25;0.95;;;;;;;17.08;27.40;94070.16;5070698;28;20047;-48
2022/05/28 11:35:45;;;;;;;3.45;1.00;;;;;;;17.95;25.95;94065.56;5070727;28;20056;-47
2022/05/28 11:38:21;;;;;;;3.80;1.00;;;;;;;19.93;24.52;94059.50;5077210;28;20791;-50
2022/05/28 11:40:48;;;;;;;4.75;0.70;;;;;;;20.77;23.00;94056.91;5070442;28;20369;-48
2022/05/28 11:43:20;;;;;;;2.95;1.00;;;;;;;20.91;23.58;94051.34;5070825;28;20049;-48
2022/05/28 11:45:56;;;;;;;4.32;0.90;;;;;;;20.43;23.12;94054.22;5070210;28;20048;-51
2022/05/28 11:51:43;;;;;;;3.13;0.80;;;;;;;20.51;23.20;94046.25;5069821;28;20767;-50
2022/05/28 11:54:45;;;;;;;3.33;0.95;;;;;;;21.18;23.49;94034.78;5054932;28;20904;-53
2022/05/28 11:57:30;;;;;;;2.90;0.90;;;;;;;20.18;24.79;94041.53;5033620;28;20417;-54
2022/05/28 11:59:58;;;;;;;3.50;0.90;;;;;;;21.00;23.87;94039.31;5050098;28;20053;-49
2022/05/28 12:02:29;;;;;;;3.20;0.90;;;;;;;21.10;24.13;94040.00;5050819;28;20037;-52